sensor_id;sensor_type;location;lat;lon;timestamp;pressure;altitude;pressure_sealevel;temperature;humidity
75497;BME280;64074;47.540;19.072;2023-04-24T00:01:31;99805.84;;;15.09;51.96
75497;BME280;64074;47.540;19.072;2023-04-24T00:04:34;99802.44;;;15.12;51.21
75497;BME280;64074;47.540;19.072;2023-04-24T00:07:37;99800.03;;;15.11;51.84
75497;BME280;64074;47.540;19.072;2023-04-24T00:10:40;99800.28;;;15.18;51.64
75497;BME280;64074;47.540;19.072;2023-04-24T00:13:43;99794.59;;;15.23;51.21
75497;BME280;64074;47.540;19.072;2023-04-24T00:16:46;99797.56;;;15.30;51.54
75497;BME280;64074;47.540;19.072;2023-04-24T00:19:50;99789.03;;;15.31;51.31
75497;BME280;64074;47.540;19.072;2023-04-24T00:22:54;99803.03;;;15.18;51.45
75497;BME280;64074;47.540;19.072;2023-04-24T00:25:57;99802.56;;;15.16;51.34
75497;BME280;64074;47.540;19.072;2023-04-24T00:29:00;99799.16;;;15.19;53.38
75497;BME280;64074;47.540;19.072;2023-04-24T00:32:06;99801.19;;;15.22;52.91
75497;BME280;64074;47.540;19.072;2023-04-24T00:35:09;99794.72;;;15.26;53.59
75497;BME280;64074;47.540;19.072;2023-04-24T00:38:12;99799.16;;;15.31;53.33
75497;BME280;64074;47.540;19.072;2023-04-24T00:41:17;99788.34;;;15.34;53.20
75497;BME280;64074;47.540;19.072;2023-04-24T00:44:20;99780.84;;;15.31;53.24
75497;BME280;64074;47.540;19.072;2023-04-24T00:47:24;99783.09;;;15.29;53.41
75497;BME280;64074;47.540;19.072;2023-04-24T00:50:29;99786.19;;;15.16;53.09
75497;BME280;64074;47.540;19.072;2023-04-24T00:53:32;99778.69;;;15.25;53.48
75497;BME280;64074;47.540;19.072;2023-04-24T00:56:35;99785.84;;;15.29;52.81
75497;BME280;64074;47.540;19.072;2023-04-24T00:59:39;99781.97;;;15.30;52.88
75497;BME280;64074;47.540;19.072;2023-04-24T01:02:45;99772.41;;;15.36;52.65
75497;BME280;64074;47.540;19.072;2023-04-24T01:05:50;99778.44;;;15.30;52.81
75497;BME280;64074;47.540;19.072;2023-04-24T01:08:54;99776.47;;;15.06;49.35
75497;BME280;64074;47.540;19.072;2023-04-24T01:11:57;99776.75;;;15.37;52.10
75497;BME280;64074;47.540;19.072;2023-04-24T01:15:00;99782.88;;;15.22;49.43
75497;BME280;64074;47.540;19.072;2023-04-24T01:18:03;99780.72;;;15.52;50.03
75497;BME280;64074;47.540;19.072;2023-04-24T01:21:08;99779.25;;;15.30;47.01
75497;BME280;64074;47.540;19.072;2023-04-24T01:24:11;99779.69;;;15.32;46.27
75497;BME280;64074;47.540;19.072;2023-04-24T01:27:15;99770.28;;;15.42;46.15
75497;BME280;64074;47.540;19.072;2023-04-24T01:30:20;99767.28;;;15.35;45.86
75497;BME280;64074;47.540;19.072;2023-04-24T01:33:23;99766.28;;;15.27;46.17
75497;BME280;64074;47.540;19.072;2023-04-24T01:36:27;99766.16;;;15.36;46.25
75497;BME280;64074;47.540;19.072;2023-04-24T01:39:31;99759.69;;;15.41;45.74
75497;BME280;64074;47.540;19.072;2023-04-24T01:42:36;99755.47;;;15.31;46.22
75497;BME280;64074;47.540;19.072;2023-04-24T01:45:39;99758.88;;;15.40;45.89
75497;BME280;64074;47.540;19.072;2023-04-24T01:48:42;99754.91;;;15.37;46.11
75497;BME280;64074;47.540;19.072;2023-04-24T01:51:45;99749.09;;;15.27;46.47
75497;BME280;64074;47.540;19.072;2023-04-24T01:54:49;99729.72;;;15.07;50.54
75497;BME280;64074;47.540;19.072;2023-04-24T01:57:55;99723.59;;;14.98;53.91
75497;BME280;64074;47.540;19.072;2023-04-24T02:00:58;99726.50;;;14.81;56.06
75497;BME280;64074;47.540;19.072;2023-04-24T02:04:04;99713.13;;;14.55;54.75
75497;BME280;64074;47.540;19.072;2023-04-24T02:07:09;99717.78;;;14.88;60.42
75497;BME280;64074;47.540;19.072;2023-04-24T02:10:13;99719.16;;;14.94;58.34
75497;BME280;64074;47.540;19.072;2023-04-24T02:13:19;99707.50;;;14.85;62.87
75497;BME280;64074;47.540;19.072;2023-04-24T02:16:22;99695.56;;;14.65;63.06
75497;BME280;64074;47.540;19.072;2023-04-24T02:19:27;99704.09;;;14.42;66.12
75497;BME280;64074;47.540;19.072;2023-04-24T02:22:30;99703.50;;;14.37;67.53
75497;BME280;64074;47.540;19.072;2023-04-24T02:25:36;99691.34;;;14.34;66.05
75497;BME280;64074;47.540;19.072;2023-04-24T02:28:39;99696.78;;;14.34;68.04
75497;BME280;64074;47.540;19.072;2023-04-24T02:31:43;99688.59;;;14.22;69.50
75497;BME280;64074;47.540;19.072;2023-04-24T02:34:46;99690.63;;;14.25;67.23
75497;BME280;64074;47.540;19.072;2023-04-24T02:37:50;99682.44;;;14.25;68.32
75497;BME280;64074;47.540;19.072;2023-04-24T02:40:53;99689.63;;;14.30;67.78
75497;BME280;64074;47.540;19.072;2023-04-24T02:43:55;99684.72;;;14.23;68.85
75497;BME280;64074;47.540;19.072;2023-04-24T02:46:59;99686.22;;;14.33;68.04
75497;BME280;64074;47.540;19.072;2023-04-24T02:50:02;99682.34;;;14.34;67.30
75497;BME280;64074;47.540;19.072;2023-04-24T02:53:05;99681.91;;;14.32;67.17
75497;BME280;64074;47.540;19.072;2023-04-24T02:56:08;99683.13;;;14.22;68.88
75497;BME280;64074;47.540;19.072;2023-04-24T02:59:12;99685.88;;;14.34;67.38
75497;BME280;64074;47.540;19.072;2023-04-24T03:02:16;99691.00;;;14.36;68.74
75497;BME280;64074;47.540;19.072;2023-04-24T03:05:18;99679.75;;;14.37;68.55
75497;BME280;64074;47.540;19.072;2023-04-24T03:08:21;99685.88;;;14.34;69.95
75497;BME280;64074;47.540;19.072;2023-04-24T03:11:24;99673.50;;;14.37;68.74
75497;BME280;64074;47.540;19.072;2023-04-24T03:14:27;99671.13;;;14.35;70.45
75497;BME280;64074;47.540;19.072;2023-04-24T03:17:32;99671.34;;;14.30;70.12
75497;BME280;64074;47.540;19.072;2023-04-24T03:20:35;99664.28;;;14.29;69.61
75497;BME280;64074;47.540;19.072;2023-04-24T03:23:39;99680.19;;;14.27;69.68
75497;BME280;64074;47.540;19.072;2023-04-24T03:26:42;99668.47;;;14.27;70.49
75497;BME280;64074;47.540;19.072;2023-04-24T03:30:06;99673.81;;;14.23;70.42
75497;BME280;64074;47.540;19.072;2023-04-24T03:33:23;99672.41;;;14.38;69.75
75497;BME280;64074;47.540;19.072;2023-04-24T03:36:36;99672.78;;;14.49;68.53
75497;BME280;64074;47.540;19.072;2023-04-24T03:39:41;99671.66;;;14.50;67.02
75497;BME280;64074;47.540;19.072;2023-04-24T03:42:45;99681.88;;;14.53;68.01
75497;BME280;64074;47.540;19.072;2023-04-24T03:45:48;99675.97;;;14.51;67.93
75497;BME280;64074;47.540;19.072;2023-04-24T03:48:52;99678.47;;;14.43;69.79
75497;BME280;64074;47.540;19.072;2023-04-24T03:51:58;99657.94;;;14.37;67.58
75497;BME280;64074;47.540;19.072;2023-04-24T03:55:02;99658.75;;;14.38;68.39
75497;BME280;64074;47.540;19.072;2023-04-24T03:58:11;99663.81;;;14.27;69.46
75497;BME280;64074;47.540;19.072;2023-04-24T04:01:14;99672.59;;;14.00;67.41
75497;BME280;64074;47.540;19.072;2023-04-24T04:04:31;99673.09;;;14.14;67.92
75497;BME280;64074;47.540;19.072;2023-04-24T04:07:36;99675.25;;;14.41;68.78
75497;BME280;64074;47.540;19.072;2023-04-24T04:10:39;99674.38;;;14.50;66.40
75497;BME280;64074;47.540;19.072;2023-04-24T04:13:42;99675.50;;;14.49;68.01
75497;BME280;64074;47.540;19.072;2023-04-24T04:16:45;99677.09;;;14.50;66.72
75497;BME280;64074;47.540;19.072;2023-04-24T04:19:48;99667.00;;;14.50;66.73
75497;BME280;64074;47.540;19.072;2023-04-24T04:22:50;99676.75;;;14.51;67.60
75497;BME280;64074;47.540;19.072;2023-04-24T04:26:01;99678.34;;;14.52;65.57
75497;BME280;64074;47.540;19.072;2023-04-24T04:29:15;99677.13;;;14.29;65.70
75497;BME280;64074;47.540;19.072;2023-04-24T04:32:22;99680.88;;;14.36;65.10
75497;BME280;64074;47.540;19.072;2023-04-24T04:35:25;99672.25;;;14.34;64.91
75497;BME280;64074;47.540;19.072;2023-04-24T04:38:29;99661.41;;;14.46;66.02
75497;BME280;64074;47.540;19.072;2023-04-24T04:41:50;99666.88;;;14.46;66.59
75497;BME280;64074;47.540;19.072;2023-04-24T04:44:55;99669.25;;;14.48;66.32
75497;BME280;64074;47.540;19.072;2023-04-24T04:48:10;99669.38;;;14.52;67.31
75497;BME280;64074;47.540;19.072;2023-04-24T04:51:16;99661.69;;;14.66;66.50
75497;BME280;64074;47.540;19.072;2023-04-24T04:54:20;99664.66;;;14.40;65.85
75497;BME280;64074;47.540;19.072;2023-04-24T04:57:22;99660.66;;;14.37;65.90
75497;BME280;64074;47.540;19.072;2023-04-24T05:00:25;99658.22;;;14.44;65.84
75497;BME280;64074;47.540;19.072;2023-04-24T05:03:30;99653.00;;;14.52;65.65
75497;BME280;64074;47.540;19.072;2023-04-24T05:06:38;99662.03;;;14.64;65.87
75497;BME280;64074;47.540;19.072;2023-04-24T05:09:42;99657.00;;;14.54;65.82
75497;BME280;64074;47.540;19.072;2023-04-24T05:12:45;99654.09;;;14.38;64.70
75497;BME280;64074;47.540;19.072;2023-04-24T05:15:48;99646.19;;;14.58;64.15
75497;BME280;64074;47.540;19.072;2023-04-24T05:18:52;99651.22;;;14.68;66.07
75497;BME280;64074;47.540;19.072;2023-04-24T05:22:01;99654.31;;;14.91;63.54
75497;BME280;64074;47.540;19.072;2023-04-24T05:25:07;99651.47;;;14.99;65.07
75497;BME280;64074;47.540;19.072;2023-04-24T05:28:15;99664.22;;;14.95;65.26
75497;BME280;64074;47.540;19.072;2023-04-24T05:31:23;99653.38;;;15.35;64.49
75497;BME280;64074;47.540;19.072;2023-04-24T05:34:27;99656.75;;;15.57;63.37
75497;BME280;64074;47.540;19.072;2023-04-24T05:37:32;99647.53;;;15.49;65.19
75497;BME280;64074;47.540;19.072;2023-04-24T05:40:37;99659.31;;;15.37;63.50
75497;BME280;64074;47.540;19.072;2023-04-24T05:43:39;99660.41;;;15.36;63.39
75497;BME280;64074;47.540;19.072;2023-04-24T05:46:42;99662.25;;;15.45;63.68
75497;BME280;64074;47.540;19.072;2023-04-24T05:49:46;99658.06;;;15.11;61.15
75497;BME280;64074;47.540;19.072;2023-04-24T05:52:50;99655.66;;;14.85;60.40
75497;BME280;64074;47.540;19.072;2023-04-24T05:56:00;99661.25;;;14.88;60.26
75497;BME280;64074;47.540;19.072;2023-04-24T05:59:07;99661.09;;;15.33;60.66
75497;BME280;64074;47.540;19.072;2023-04-24T06:02:15;99657.94;;;15.19;59.84
75497;BME280;64074;47.540;19.072;2023-04-24T06:05:20;99655.47;;;15.14;59.42
75497;BME280;64074;47.540;19.072;2023-04-24T06:08:23;99659.44;;;15.17;59.25
75497;BME280;64074;47.540;19.072;2023-04-24T06:11:29;99660.09;;;15.38;59.58
75497;BME280;64074;47.540;19.072;2023-04-24T06:14:32;99659.97;;;15.59;58.62
75497;BME280;64074;47.540;19.072;2023-04-24T06:17:51;99659.47;;;15.57;58.05
75497;BME280;64074;47.540;19.072;2023-04-24T06:20:55;99670.44;;;15.45;59.43
75497;BME280;64074;47.540;19.072;2023-04-24T06:23:59;99670.66;;;15.52;58.67
75497;BME280;64074;47.540;19.072;2023-04-24T06:27:02;99667.56;;;15.53;59.04
75497;BME280;64074;47.540;19.072;2023-04-24T06:30:06;99663.84;;;15.46;58.80
75497;BME280;64074;47.540;19.072;2023-04-24T06:33:09;99669.50;;;15.53;58.43
75497;BME280;64074;47.540;19.072;2023-04-24T06:36:22;99663.50;;;15.47;60.48
75497;BME280;64074;47.540;19.072;2023-04-24T06:39:25;99665.31;;;15.43;61.04
75497;BME280;64074;47.540;19.072;2023-04-24T06:42:28;99652.69;;;15.26;60.84
75497;BME280;64074;47.540;19.072;2023-04-24T06:45:32;99658.50;;;15.61;61.43
75497;BME280;64074;47.540;19.072;2023-04-24T06:48:37;99653.69;;;15.46;61.79
75497;BME280;64074;47.540;19.072;2023-04-24T06:51:41;99653.69;;;15.46;61.13
75497;BME280;64074;47.540;19.072;2023-04-24T06:54:44;99656.34;;;15.95;61.91
75497;BME280;64074;47.540;19.072;2023-04-24T06:57:47;99661.22;;;15.61;61.55
75497;BME280;64074;47.540;19.072;2023-04-24T07:00:54;99668.81;;;15.56;61.00
75497;BME280;64074;47.540;19.072;2023-04-24T07:03:58;99667.28;;;15.18;61.84
75497;BME280;64074;47.540;19.072;2023-04-24T07:07:02;99660.31;;;15.45;61.86
75497;BME280;64074;47.540;19.072;2023-04-24T07:10:06;99658.97;;;15.39;61.45
75497;BME280;64074;47.540;19.072;2023-04-24T07:13:11;99659.16;;;15.46;61.18
75497;BME280;64074;47.540;19.072;2023-04-24T07:16:16;99656.25;;;15.79;61.36
75497;BME280;64074;47.540;19.072;2023-04-24T07:19:20;99652.72;;;15.79;59.48
75497;BME280;64074;47.540;19.072;2023-04-24T07:22:24;99660.84;;;16.03;59.57
75497;BME280;64074;47.540;19.072;2023-04-24T07:25:27;99657.84;;;16.08;59.80
75497;BME280;64074;47.540;19.072;2023-04-24T07:28:30;99656.41;;;15.71;60.37
75497;BME280;64074;47.540;19.072;2023-04-24T07:31:34;99658.03;;;15.35;61.27
75497;BME280;64074;47.540;19.072;2023-04-24T07:34:37;99670.44;;;15.32;61.00
75497;BME280;64074;47.540;19.072;2023-04-24T07:37:40;99667.38;;;15.34;60.94
75497;BME280;64074;47.540;19.072;2023-04-24T07:40:49;99663.53;;;15.87;60.11
75497;BME280;64074;47.540;19.072;2023-04-24T07:43:56;99653.41;;;16.16;58.89
75497;BME280;64074;47.540;19.072;2023-04-24T07:47:20;99653.69;;;15.71;60.42
75497;BME280;64074;47.540;19.072;2023-04-24T07:50:36;99656.06;;;15.60;60.95
75497;BME280;64074;47.540;19.072;2023-04-24T07:53:39;99656.56;;;15.62;60.88
75497;BME280;64074;47.540;19.072;2023-04-24T07:56:43;99654.34;;;15.55;61.24
75497;BME280;64074;47.540;19.072;2023-04-24T07:59:46;99661.53;;;15.60;61.48
75497;BME280;64074;47.540;19.072;2023-04-24T08:02:49;99653.84;;;16.18;60.12
75497;BME280;64074;47.540;19.072;2023-04-24T08:05:53;99658.44;;;16.14;60.30
75497;BME280;64074;47.540;19.072;2023-04-24T08:08:57;99660.19;;;15.66;61.58
75497;BME280;64074;47.540;19.072;2023-04-24T08:12:01;99660.53;;;15.64;61.84
75497;BME280;64074;47.540;19.072;2023-04-24T08:15:05;99655.91;;;15.81;61.44
75497;BME280;64074;47.540;19.072;2023-04-24T08:18:08;99647.69;;;15.93;61.31
75497;BME280;64074;47.540;19.072;2023-04-24T08:21:14;99646.09;;;15.92;62.00
75497;BME280;64074;47.540;19.072;2023-04-24T08:24:22;99653.50;;;16.19;61.86
75497;BME280;64074;47.540;19.072;2023-04-24T08:27:26;99643.75;;;16.66;60.75
75497;BME280;64074;47.540;19.072;2023-04-24T08:30:29;99653.38;;;16.59;60.85
75497;BME280;64074;47.540;19.072;2023-04-24T08:33:32;99651.13;;;16.18;61.17
75497;BME280;64074;47.540;19.072;2023-04-24T08:36:37;99658.53;;;16.17;62.08
75497;BME280;64074;47.540;19.072;2023-04-24T08:39:53;99654.28;;;15.92;62.05
75497;BME280;64074;47.540;19.072;2023-04-24T08:43:01;99655.00;;;16.17;62.20
75497;BME280;64074;47.540;19.072;2023-04-24T08:46:05;99651.69;;;16.39;60.54
75497;BME280;64074;47.540;19.072;2023-04-24T08:49:16;99647.31;;;16.98;58.37
75497;BME280;64074;47.540;19.072;2023-04-24T08:52:21;99643.00;;;16.97;57.52
75497;BME280;64074;47.540;19.072;2023-04-24T08:55:34;99646.16;;;16.99;57.27
75497;BME280;64074;47.540;19.072;2023-04-24T08:58:43;99640.63;;;17.30;56.39
75497;BME280;64074;47.540;19.072;2023-04-24T09:01:52;99639.53;;;17.15;56.13
75497;BME280;64074;47.540;19.072;2023-04-24T09:05:09;99639.69;;;17.22;56.21
75497;BME280;64074;47.540;19.072;2023-04-24T09:08:17;99633.31;;;17.18;56.29
75497;BME280;64074;47.540;19.072;2023-04-24T09:11:25;99629.72;;;17.49;55.82
75497;BME280;64074;47.540;19.072;2023-04-24T09:14:34;99626.59;;;17.86;54.93
75497;BME280;64074;47.540;19.072;2023-04-24T09:17:47;99634.66;;;18.18;53.90
75497;BME280;64074;47.540;19.072;2023-04-24T09:24:14;99621.59;;;18.11;52.45
75497;BME280;64074;47.540;19.072;2023-04-24T09:27:23;99619.75;;;18.61;50.92
75497;BME280;64074;47.540;19.072;2023-04-24T09:30:29;99614.81;;;18.70;49.80
75497;BME280;64074;47.540;19.072;2023-04-24T09:33:36;99604.88;;;18.85;48.71
75497;BME280;64074;47.540;19.072;2023-04-24T09:36:56;99600.97;;;19.12;47.50
75497;BME280;64074;47.540;19.072;2023-04-24T09:43:27;99592.16;;;19.29;47.55
75497;BME280;64074;47.540;19.072;2023-04-24T09:46:41;99600.38;;;19.26;47.69
75497;BME280;64074;47.540;19.072;2023-04-24T09:49:45;99596.28;;;19.43;47.53
75497;BME280;64074;47.540;19.072;2023-04-24T09:53:05;99591.47;;;20.33;45.56
75497;BME280;64074;47.540;19.072;2023-04-24T09:56:11;99594.47;;;19.84;46.85
75497;BME280;64074;47.540;19.072;2023-04-24T09:59:18;99586.13;;;20.51;43.43
75497;BME280;64074;47.540;19.072;2023-04-24T10:02:21;99584.25;;;20.58;43.76
75497;BME280;64074;47.540;19.072;2023-04-24T10:05:27;99578.56;;;20.41;44.62
75497;BME280;64074;47.540;19.072;2023-04-24T10:08:35;99586.50;;;20.09;45.53
75497;BME280;64074;47.540;19.072;2023-04-24T10:11:41;99589.53;;;20.00;44.63
75497;BME280;64074;47.540;19.072;2023-04-24T10:14:46;99591.66;;;20.14;43.73
75497;BME280;64074;47.540;19.072;2023-04-24T10:18:00;99584.00;;;19.63;45.04
75497;BME280;64074;47.540;19.072;2023-04-24T10:21:17;99583.41;;;20.14;44.29
75497;BME280;64074;47.540;19.072;2023-04-24T10:24:36;99581.25;;;19.96;44.70
75497;BME280;64074;47.540;19.072;2023-04-24T10:27:41;99577.19;;;20.24;44.83
75497;BME280;64074;47.540;19.072;2023-04-24T10:30:45;99577.25;;;20.31;43.96
75497;BME280;64074;47.540;19.072;2023-04-24T10:33:49;99580.84;;;20.35;44.44
75497;BME280;64074;47.540;19.072;2023-04-24T10:36:55;99570.78;;;20.09;45.04
75497;BME280;64074;47.540;19.072;2023-04-24T10:40:01;99574.88;;;19.89;45.35
75497;BME280;64074;47.540;19.072;2023-04-24T10:43:07;99572.75;;;19.75;44.99
75497;BME280;64074;47.540;19.072;2023-04-24T10:46:19;99581.00;;;20.09;44.12
75497;BME280;64074;47.540;19.072;2023-04-24T10:49:31;99576.59;;;19.67;45.98
75497;BME280;64074;47.540;19.072;2023-04-24T10:52:48;99568.25;;;19.60;46.23
75497;BME280;64074;47.540;19.072;2023-04-24T10:56:02;99578.91;;;19.35;47.14
75497;BME280;64074;47.540;19.072;2023-04-24T10:59:07;99574.47;;;19.57;47.28
75497;BME280;64074;47.540;19.072;2023-04-24T11:02:15;99564.63;;;19.86;46.69
75497;BME280;64074;47.540;19.072;2023-04-24T11:05:22;99574.56;;;19.34;47.43
75497;BME280;64074;47.540;19.072;2023-04-24T11:08:31;99560.50;;;19.39;48.58
75497;BME280;64074;47.540;19.072;2023-04-24T11:11:36;99570.38;;;19.74;47.85
75497;BME280;64074;47.540;19.072;2023-04-24T11:17:58;99563.31;;;19.76;48.00
75497;BME280;64074;47.540;19.072;2023-04-24T11:21:10;99556.16;;;20.42;46.48
75497;BME280;64074;47.540;19.072;2023-04-24T11:27:38;99551.91;;;21.07;44.51
75497;BME280;64074;47.540;19.072;2023-04-24T11:30:46;99548.88;;;21.26;44.14
75497;BME280;64074;47.540;19.072;2023-04-24T11:33:50;99545.81;;;21.38;43.54
75497;BME280;64074;47.540;19.072;2023-04-24T11:36:53;99542.97;;;21.24;44.07
75497;BME280;64074;47.540;19.072;2023-04-24T11:39:57;99536.50;;;20.99;45.14
75497;BME280;64074;47.540;19.072;2023-04-24T11:43:03;99534.94;;;20.46;46.05
75497;BME280;64074;47.540;19.072;2023-04-24T11:46:09;99535.59;;;20.33;46.51
75497;BME280;64074;47.540;19.072;2023-04-24T11:49:13;99541.53;;;20.82;45.44
75497;BME280;64074;47.540;19.072;2023-04-24T11:52:19;99535.50;;;21.28;43.90
75497;BME280;64074;47.540;19.072;2023-04-24T11:58:25;99522.78;;;22.10;42.17
75497;BME280;64074;47.540;19.072;2023-04-24T12:01:42;99521.91;;;21.89;42.90
75497;BME280;64074;47.540;19.072;2023-04-24T12:04:46;99511.66;;;21.89;43.36
75497;BME280;64074;47.540;19.072;2023-04-24T12:07:49;99506.75;;;21.29;44.49
75497;BME280;64074;47.540;19.072;2023-04-24T12:10:55;99498.53;;;20.71;46.23
75497;BME280;64074;47.540;19.072;2023-04-24T12:14:10;99499.56;;;20.52;46.99
75497;BME280;64074;47.540;19.072;2023-04-24T12:17:14;99494.09;;;20.08;48.62
75497;BME280;64074;47.540;19.072;2023-04-24T12:20:24;99497.91;;;19.96;48.52
75497;BME280;64074;47.540;19.072;2023-04-24T12:23:35;99492.25;;;19.82;49.36
75497;BME280;64074;47.540;19.072;2023-04-24T12:26:42;99495.69;;;19.72;49.99
75497;BME280;64074;47.540;19.072;2023-04-24T12:29:55;99499.75;;;19.51;50.15
75497;BME280;64074;47.540;19.072;2023-04-24T12:32:59;99485.38;;;19.31;50.34
75497;BME280;64074;47.540;19.072;2023-04-24T12:36:04;99484.94;;;19.26;50.51
75497;BME280;64074;47.540;19.072;2023-04-24T12:39:17;99486.16;;;19.32;49.91
75497;BME280;64074;47.540;19.072;2023-04-24T12:42:26;99486.25;;;19.69;49.29
75497;BME280;64074;47.540;19.072;2023-04-24T12:45:29;99484.31;;;19.73;50.01
75497;BME280;64074;47.540;19.072;2023-04-24T12:48:33;99479.03;;;19.94;51.31
75497;BME280;64074;47.540;19.072;2023-04-24T12:51:37;99463.13;;;19.77;54.49
75497;BME280;64074;47.540;19.072;2023-04-24T12:54:43;99465.38;;;19.64;54.03
75497;BME280;64074;47.540;19.072;2023-04-24T12:58:03;99455.03;;;19.21;53.99
75497;BME280;64074;47.540;19.072;2023-04-24T13:01:05;99469.13;;;18.86;55.26
75497;BME280;64074;47.540;19.072;2023-04-24T13:04:12;99456.59;;;18.62;56.95
75497;BME280;64074;47.540;19.072;2023-04-24T13:07:43;99457.72;;;19.14;56.96
75497;BME280;64074;47.540;19.072;2023-04-24T13:11:05;99458.13;;;19.16;55.42
75497;BME280;64074;47.540;19.072;2023-04-24T13:14:08;99456.09;;;18.83;58.27
75497;BME280;64074;47.540;19.072;2023-04-24T13:17:11;99444.50;;;18.93;56.48
75497;BME280;64074;47.540;19.072;2023-04-24T13:20:15;99447.09;;;19.12;56.02
75497;BME280;64074;47.540;19.072;2023-04-24T13:23:19;99441.25;;;19.17;55.50
75497;BME280;64074;47.540;19.072;2023-04-24T13:26:23;99436.88;;;18.56;58.04
75497;BME280;64074;47.540;19.072;2023-04-24T13:29:26;99429.81;;;18.55;58.01
75497;BME280;64074;47.540;19.072;2023-04-24T13:32:30;99421.25;;;18.34;59.19
75497;BME280;64074;47.540;19.072;2023-04-24T13:35:33;99412.88;;;18.23;59.97
75497;BME280;64074;47.540;19.072;2023-04-24T13:38:36;99409.81;;;18.28;59.19
75497;BME280;64074;47.540;19.072;2023-04-24T13:41:39;99421.16;;;18.27;59.89
75497;BME280;64074;47.540;19.072;2023-04-24T13:44:42;99434.31;;;18.40;59.51
75497;BME280;64074;47.540;19.072;2023-04-24T13:47:44;99429.31;;;18.46;59.01
75497;BME280;64074;47.540;19.072;2023-04-24T13:50:48;99434.88;;;18.27;60.69
75497;BME280;64074;47.540;19.072;2023-04-24T13:53:54;99447.75;;;18.23;60.71
75497;BME280;64074;47.540;19.072;2023-04-24T13:56:58;99462.88;;;17.48;65.43
75497;BME280;64074;47.540;19.072;2023-04-24T14:00:01;99462.94;;;17.51;66.79
75497;BME280;64074;47.540;19.072;2023-04-24T14:03:09;99466.78;;;17.47;66.32
75497;BME280;64074;47.540;19.072;2023-04-24T14:06:12;99473.50;;;17.30;67.67
75497;BME280;64074;47.540;19.072;2023-04-24T14:09:15;99484.13;;;17.12;67.82
75497;BME280;64074;47.540;19.072;2023-04-24T14:12:18;99479.91;;;16.99;70.06
75497;BME280;64074;47.540;19.072;2023-04-24T14:15:22;99487.63;;;16.94;71.70
75497;BME280;64074;47.540;19.072;2023-04-24T14:18:25;99490.75;;;16.76;69.23
75497;BME280;64074;47.540;19.072;2023-04-24T14:21:29;99481.19;;;16.86;71.32
75497;BME280;64074;47.540;19.072;2023-04-24T14:24:33;99488.91;;;16.49;73.61
75497;BME280;64074;47.540;19.072;2023-04-24T14:27:35;99484.03;;;16.58;73.29
75497;BME280;64074;47.540;19.072;2023-04-24T14:30:38;99483.44;;;16.65;72.12
75497;BME280;64074;47.540;19.072;2023-04-24T14:33:43;99486.81;;;16.93;72.63
75497;BME280;64074;47.540;19.072;2023-04-24T14:36:46;99491.44;;;17.28;70.87
75497;BME280;64074;47.540;19.072;2023-04-24T14:39:48;99488.09;;;17.57;70.20
75497;BME280;64074;47.540;19.072;2023-04-24T14:43:11;99490.78;;;17.73;68.92
75497;BME280;64074;47.540;19.072;2023-04-24T14:46:14;99496.00;;;18.24;66.25
75497;BME280;64074;47.540;19.072;2023-04-24T14:49:17;99504.09;;;18.39;68.60
75497;BME280;64074;47.540;19.072;2023-04-24T14:52:20;99498.06;;;18.07;64.46
75497;BME280;64074;47.540;19.072;2023-04-24T14:55:24;99499.72;;;18.12;68.37
75497;BME280;64074;47.540;19.072;2023-04-24T14:58:28;99491.28;;;18.24;68.43
75497;BME280;64074;47.540;19.072;2023-04-24T15:01:32;99496.25;;;18.15;67.87
75497;BME280;64074;47.540;19.072;2023-04-24T15:04:35;99501.00;;;17.95;71.02
75497;BME280;64074;47.540;19.072;2023-04-24T15:07:38;99493.50;;;17.92;69.15
75497;BME280;64074;47.540;19.072;2023-04-24T15:10:44;99493.41;;;17.46;66.38
75497;BME280;64074;47.540;19.072;2023-04-24T15:13:47;99490.75;;;17.92;67.77
75497;BME280;64074;47.540;19.072;2023-04-24T15:16:51;99481.84;;;17.99;68.34
75497;BME280;64074;47.540;19.072;2023-04-24T15:19:54;99492.81;;;18.22;65.92
75497;BME280;64074;47.540;19.072;2023-04-24T15:22:57;99488.91;;;18.00;63.89
75497;BME280;64074;47.540;19.072;2023-04-24T15:26:02;99480.94;;;17.91;64.30
75497;BME280;64074;47.540;19.072;2023-04-24T15:29:05;99480.63;;;17.54;64.25
75497;BME280;64074;47.540;19.072;2023-04-24T15:32:08;99484.09;;;17.51;64.95
75497;BME280;64074;47.540;19.072;2023-04-24T15:35:12;99494.69;;;17.52;64.06
75497;BME280;64074;47.540;19.072;2023-04-24T15:38:15;99493.34;;;17.43;64.52
75497;BME280;64074;47.540;19.072;2023-04-24T15:41:17;99491.22;;;17.56;64.87
75497;BME280;64074;47.540;19.072;2023-04-24T15:44:21;99493.09;;;17.51;64.22
75497;BME280;64074;47.540;19.072;2023-04-24T15:47:24;99496.72;;;17.17;64.19
75497;BME280;64074;47.540;19.072;2023-04-24T15:50:28;99499.03;;;17.15;63.60
75497;BME280;64074;47.540;19.072;2023-04-24T15:53:31;99496.56;;;16.90;64.83
75497;BME280;64074;47.540;19.072;2023-04-24T15:56:34;99504.91;;;16.47;65.10
75497;BME280;64074;47.540;19.072;2023-04-24T15:59:38;99505.25;;;16.61;65.29
75497;BME280;64074;47.540;19.072;2023-04-24T16:02:41;99500.91;;;16.76;65.08
75497;BME280;64074;47.540;19.072;2023-04-24T16:05:44;99501.59;;;16.57;64.48
75497;BME280;64074;47.540;19.072;2023-04-24T16:08:47;99501.91;;;16.20;65.77
75497;BME280;64074;47.540;19.072;2023-04-24T16:11:51;99502.38;;;16.38;65.42
75497;BME280;64074;47.540;19.072;2023-04-24T16:15:00;99495.03;;;16.42;65.42
75497;BME280;64074;47.540;19.072;2023-04-24T16:18:03;99498.34;;;16.51;65.93
75497;BME280;64074;47.540;19.072;2023-04-24T16:21:06;99499.44;;;16.47;65.51
75497;BME280;64074;47.540;19.072;2023-04-24T16:24:10;99493.53;;;16.45;66.02
75497;BME280;64074;47.540;19.072;2023-04-24T16:27:14;99495.38;;;16.41;66.79